KLND/LND METAR and TAF weather

Enter ICAO airport designator
Station Type Date Time Source
KLND METAR 2021/05/14 04:53 UTC NOAA

KLND 140453Z AUTO 36010KT 10SM FEW055 SCT070 BKN090 14/01 A3014 RMK AO2 SLP167 T01390011


Station Type Date Time Source
KLND Decoded METAR 2021/05/14 04:53 UTC NOAA

LANDER HUNT FIELD, WY, United States (KLND) 42-49N 108-44W 1694M
May 14, 2021 - 12:53 AM EDT / 2021.05.14 0453 UTC
Wind: from the N (360 degrees) at 12 MPH (10 KT):0
Visibility: 10 mile(s):0
Sky conditions: mostly cloudy
Temperature: 57.0 F (13.9 C)
Dew Point: 34.0 F (1.1 C)
Relative Humidity: 41%
Pressure (altimeter): 30.14 in. Hg (1020 hPa)
ob: KLND 140453Z AUTO 36010KT 10SM FEW055 SCT070 BKN090 14/01 A3014 RMK AO2 SLP167 T01390011
cycle: 5

Station Type Date Time Source
KLND TAF 2021/05/13 21:54 UTC NOAA

TAF
AMD KLND 132053Z 1321/1418 30011KT P6SM VCSH BKN100
FM140200 28008KT P6SM SCT100 BKN150
FM141200 VRB05KT P6SM SCT100 BKN150

Example: see airport list